CZCP

Cape Parry Airport

Cape Parry, Canada
METAR CZCP 240800Z AUTO 08028KT ////SM //// OVC007 M06/M07 A2997
Observed Flight Rules
May-24 @ 08:00 UTC (13 minutes ago)
Wind Clouds
80° at 28 knots
  • Overcast at 700' AGL
Temperatures Readings
Current -6°C / 21°F
Dewpoint -7°C / 19°F
Humidity 93%
Altimeter 29.97" Hg
Pressure 1015 hPa
Elevation 93
METAR CZCP 240800Z AUTO 08028KT ////SM //// OVC007 M06/M07 A2997
Observed Flight Rules
May-24 @ 08:00 UTC
(13 minutes ago)
Wind
80° at 28 knots
Clouds
  • Overcast at 700' AGL
Temperature Dewpoint
-6°C / 21°F -7°C / 19°F
Humidity Altimeter Pressure
93% 29.97" Hg 1015 hPa